메인 페이지
METAR-TAF:

METAR-TAF

공항 :

William H. Morse State Airport

Bennington, 버몬트, 미국

위도: 42-53-24N, 경도: 073-14-47W, 고도: 252m

현재 날씨관측

예보는 59분 전, 18:54시(UTC)에 발표되었습니다.
서남서11kt, 순간 최대 풍속 19kt남서풍과 서북서풍을 오가는
온도 4°C
습도 75%
기압 1013 hPa
시정: 16.1km
고도 3800ft 상공 흐림

METAR: KDDH 231854Z AUTO 25011G19KT 220V290 10SM OVC038 04/00 A2991 RMK AO2 SLP131 T00390000

시각: 14:53 (19:53 UTC)


TAF: 누락

4,000개 이상의 공항 관측 자료 및 예보 (METAR 및 TAF 보고).

지도상에서 검색 가능한 기상관측소가 노란 점과 빨간 점으로 표시되어 있습니다.

기상관측소 명을 보려면 표시 위로 마우스를 이동하세요.

날씨 관측과 예보를 보려면 클릭하세요.

지도 변경 : 확대하려면 엑스 표시가 있는 녹색 버튼, 축소하려면 빼기 표시가 있는 녹색 버튼, 다음 페이지의 지도를 보려면 녹색 화살표를 클릭하세요.


METAR-TAF: